Time;durP1;ratioP1;P1;durP2;ratioP2;P2;SDS_P1;SDS_P2;PMS_P1;PMS_P2;Temp;Humidity;BMP_temperature;BMP_pressure;BME280_temperature;BME280_humidity;BME280_pressure;Samples;Min_cycle;Max_cycle;Signal;HPM_P1;HPM_P2
2023/05/22 00:02:01;;;;;;;;;;;;;;;22.90;93.38;97574.78;5077200;28;20015;-71
2023/05/22 00:04:28;;;;;;;;;;;;;;;22.85;93.89;97567.66;5074301;28;19950;-71
2023/05/22 00:06:55;;;;;;;;;;;;;;;22.83;93.88;97563.72;5079703;28;19920;-71
2023/05/22 00:09:21;;;;;;;;;;;;;;;22.83;93.82;97558.25;5077142;28;19931;-71
2023/05/22 00:11:49;;;;;;;;;;;;;;;22.85;93.63;97555.97;5071207;28;19925;-71
2023/05/22 00:14:15;;;;;;;;;;;;;;;22.71;93.41;97556.41;5070201;28;19925;-71
2023/05/22 00:16:42;;;;;;;;;;;;;;;22.72;93.96;97554.47;5074529;28;19952;-71
2023/05/22 00:19:11;;;;;;;;;;;;;;;22.67;94.03;97560.97;5077020;28;19956;-72
2023/05/22 00:21:38;;;;;;;;;;;;;;;22.70;93.54;97556.75;5077254;28;19925;-71
2023/05/22 00:24:05;;;;;;;;;;;;;;;22.69;93.40;97552.44;5075580;28;19967;-71
2023/05/22 00:26:31;;;;;;;;;;;;;;;22.66;92.95;97547.69;5074470;28;19925;-71
2023/05/22 00:28:59;;;;;;;;;;;;;;;22.63;92.98;97554.59;5075656;28;19956;-72
2023/05/22 00:31:25;;;;;;;;;;;;;;;22.62;93.04;97546.81;5075454;28;19925;-71
2023/05/22 00:33:52;;;;;;;;;;;;;;;22.60;92.91;97545.22;5075931;28;19967;-71
2023/05/22 00:36:18;;;;;;;;;;;;;;;22.58;92.55;97549.44;5073102;28;19988;-71
2023/05/22 00:38:45;;;;;;;;;;;;;;;22.59;92.24;97556.47;5073658;28;19952;-71
2023/05/22 00:41:11;;;;;;;;;;;;;;;22.58;91.81;97547.50;5076335;28;19964;-71
2023/05/22 00:43:38;;;;;;;;;;;;;;;22.58;92.01;97552.94;5075581;28;19991;-71
2023/05/22 00:46:06;;;;;;;;;;;;;;;22.58;91.63;97560.31;5077546;28;19921;-71
2023/05/22 00:48:32;;;;;;;;;;;;;;;22.54;91.93;97564.88;5076533;28;19929;-71
2023/05/22 00:50:59;;;;;;;;;;;;;;;22.51;91.94;97552.75;5076219;28;19967;-72
2023/05/22 00:53:28;;;;;;;;;;;;;;;22.50;91.71;97555.81;5075982;28;19924;-71
2023/05/22 00:55:55;;;;;;;;;;;;;;;22.51;91.80;97546.53;5075790;28;20011;-71
2023/05/22 00:58:24;;;;;;;;;;;;;;;22.53;91.47;97544.22;5072767;28;19987;-71
2023/05/22 01:00:51;;;;;;;;;;;;;;;22.50;91.48;97545.72;5073793;28;19992;-72
2023/05/22 01:03:24;;;;;;;;;;;;;;;22.48;91.45;97542.56;5075906;28;19967;-72
2023/05/22 01:05:51;;;;;;;;;;;;;;;22.47;91.53;97549.13;5083370;28;19931;-72
2023/05/22 01:08:18;;;;;;;;;;;;;;;22.48;91.64;97560.81;5071706;28;19956;-72
2023/05/22 01:10:44;;;;;;;;;;;;;;;22.39;91.72;97555.53;5074587;28;19960;-72
2023/05/22 01:13:14;;;;;;;;;;;;;;;22.34;91.71;97553.09;5076264;28;19977;-72
2023/05/22 01:15:43;;;;;;;;;;;;;;;22.36;91.74;97550.81;5076007;28;19925;-72
2023/05/22 01:18:18;;;;;;;;;;;;;;;22.33;91.67;97546.06;5076060;28;19954;-72
2023/05/22 01:20:50;;;;;;;;;;;;;;;22.34;91.73;97544.94;5074653;28;19942;-72
2023/05/22 01:23:47;;;;;;;;;;;;;;;22.33;91.74;97551.50;5075673;28;19926;-71
2023/05/22 01:26:22;;;;;;;;;;;;;;;22.30;91.88;97557.63;5070080;28;20016;-71
2023/05/22 01:28:56;;;;;;;;;;;;;;;22.09;91.74;97550.81;5080699;28;19924;-71
2023/05/22 01:31:25;;;;;;;;;;;;;;;21.94;94.31;97553.13;5074117;28;19928;-73
2023/05/22 01:33:54;;;;;;;;;;;;;;;22.01;94.32;97564.19;5074649;28;20001;-73
2023/05/22 01:36:21;;;;;;;;;;;;;;;22.08;93.90;97560.91;5072050;28;20568;-73
2023/05/22 01:38:48;;;;;;;;;;;;;;;22.12;93.22;97561.81;5074876;28;19929;-73
2023/05/22 01:41:14;;;;;;;;;;;;;;;22.13;93.39;97562.59;5075101;28;19966;-72
2023/05/22 01:43:41;;;;;;;;;;;;;;;22.12;93.03;97567.25;5074864;28;20023;-72
2023/05/22 01:46:07;;;;;;;;;;;;;;;22.11;93.43;97565.66;5076371;28;19987;-72
2023/05/22 01:48:35;;;;;;;;;;;;;;;22.07;93.67;97559.31;5074525;28;19936;-72
2023/05/22 01:51:03;;;;;;;;;;;;;;;22.06;93.87;97563.19;5074897;28;19964;-73
2023/05/22 01:53:33;;;;;;;;;;;;;;;22.10;93.20;97557.84;5075216;28;19936;-73
2023/05/22 01:56:04;;;;;;;;;;;;;;;22.11;93.06;97556.69;5074382;28;19952;-72
2023/05/22 01:58:34;;;;;;;;;;;;;;;22.06;93.21;97553.06;5071374;28;20679;-72
2023/05/22 02:01:02;;;;;;;;;;;;;;;22.05;93.18;97556.94;5076322;28;19931;-73
2023/05/22 02:03:30;;;;;;;;;;;;;;;22.03;93.21;97553.75;5074272;28;20027;-72
2023/05/22 02:06:00;;;;;;;;;;;;;;;22.03;93.38;97563.88;5075449;28;19921;-72
2023/05/22 02:08:26;;;;;;;;;;;;;;;22.01;93.45;97560.69;5068358;28;19952;-72
2023/05/22 02:10:54;;;;;;;;;;;;;;;22.00;93.50;97550.97;5074860;28;19971;-72
2023/05/22 02:13:21;;;;;;;;;;;;;;;21.98;93.50;97554.03;5075434;28;19977;-72
2023/05/22 02:15:51;;;;;;;;;;;;;;;21.96;93.64;97558.22;5075526;28;19925;-72
2023/05/22 02:18:17;;;;;;;;;;;;;;;21.96;93.78;97559.03;5072991;28;19956;-73
2023/05/22 02:20:45;;;;;;;;;;;;;;;21.95;93.83;97556.63;5068826;28;19943;-73
2023/05/22 02:23:13;;;;;;;;;;;;;;;21.92;93.94;97552.69;5072008;28;19925;-73
2023/05/22 02:25:39;;;;;;;;;;;;;;;21.91;93.88;97550.31;5073293;28;19988;-73
2023/05/22 02:28:05;;;;;;;;;;;;;;;21.94;93.56;97555.06;5075190;28;19924;-73
2023/05/22 02:30:32;;;;;;;;;;;;;;;21.89;93.72;97552.56;5075649;28;19984;-73
2023/05/22 02:32:59;;;;;;;;;;;;;;;21.86;93.75;97547.78;5074373;28;20417;-72
2023/05/22 02:35:25;;;;;;;;;;;;;;;21.86;93.80;97548.59;5074086;28;20001;-72
2023/05/22 02:37:51;;;;;;;;;;;;;;;21.85;93.49;97546.22;5074971;28;19960;-72
2023/05/22 02:40:19;;;;;;;;;;;;;;;21.80;93.88;97543.75;5074902;28;19991;-71
2023/05/22 02:42:45;;;;;;;;;;;;;;;21.84;93.62;97539.22;5076436;28;19952;-72
2023/05/22 02:45:12;;;;;;;;;;;;;;;21.80;93.57;97549.19;5070727;28;19992;-72
2023/05/22 02:47:38;;;;;;;;;;;;;;;21.77;93.92;97539.78;5072470;28;20047;-72
2023/05/22 02:50:05;;;;;;;;;;;;;;;21.78;93.81;97544.09;5074538;28;19963;-71
2023/05/22 02:52:31;;;;;;;;;;;;;;;21.75;93.88;97535.84;5075334;28;20080;-71
2023/05/22 02:54:57;;;;;;;;;;;;;;;21.71;93.81;97540.38;5075384;28;19984;-71
2023/05/22 02:57:25;;;;;;;;;;;;;;;21.76;93.75;97540.13;5075922;28;19925;-71
2023/05/22 02:59:53;;;;;;;;;;;;;;;21.71;93.87;97537.66;5077178;28;20366;-71
2023/05/22 03:02:20;;;;;;;;;;;;;;;21.65;93.99;97539.81;5075844;28;20020;-72
2023/05/22 03:04:46;;;;;;;;;;;;;;;21.64;94.05;97540.16;5075034;28;19929;-71
2023/05/22 03:07:12;;;;;;;;;;;;;;;21.66;93.72;97548.78;5080425;28;19928;-71
2023/05/22 03:09:39;;;;;;;;;;;;;;;21.66;93.77;97548.78;5085275;28;19984;-71
2023/05/22 03:12:05;;;;;;;;;;;;;;;21.65;93.82;97552.63;5087239;28;19913;-71
2023/05/22 03:14:33;;;;;;;;;;;;;;;21.62;93.74;97547.88;5091430;28;19916;-71
2023/05/22 03:16:59;;;;;;;;;;;;;;;21.55;94.39;97548.44;5082256;28;19924;-71
2023/05/22 03:19:26;;;;;;;;;;;;;;;21.54;94.16;97549.56;5082910;28;19952;-71
2023/05/22 03:21:52;;;;;;;;;;;;;;;21.56;94.08;97550.03;5078336;28;19947;-72
2023/05/22 03:24:18;;;;;;;;;;;;;;;21.53;94.06;97550.72;5078182;28;19925;-72
2023/05/22 03:26:45;;;;;;;;;;;;;;;21.48;94.34;97554.44;5075961;28;19932;-72
2023/05/22 03:29:11;;;;;;;;;;;;;;;21.52;94.12;97560.78;5076413;28;20561;-72
2023/05/22 03:31:39;;;;;;;;;;;;;;;21.51;94.08;97556.47;5073504;28;19936;-72
2023/05/22 03:34:06;;;;;;;;;;;;;;;21.49;94.18;97560.69;5078070;28;19960;-72
2023/05/22 03:36:33;;;;;;;;;;;;;;;21.50;94.25;97554.91;5078475;28;20012;-72
2023/05/22 03:39:00;;;;;;;;;;;;;;;21.48;94.19;97556.38;5078528;28;19943;-72
2023/05/22 03:41:26;;;;;;;;;;;;;;;21.42;94.75;97550.38;5078536;28;19975;-72
2023/05/22 03:43:52;;;;;;;;;;;;;;;21.46;94.74;97556.72;5078353;28;19996;-72
2023/05/22 03:46:19;;;;;;;;;;;;;;;21.45;95.04;97559.78;5077856;28;19929;-71
2023/05/22 03:48:47;;;;;;;;;;;;;;;21.47;94.68;97563.75;5075797;28;19997;-71
2023/05/22 03:51:13;;;;;;;;;;;;;;;21.41;95.41;97559.69;5073905;28;19989;-71
2023/05/22 03:53:39;;;;;;;;;;;;;;;21.47;94.90;97558.31;5075295;28;19948;-71
2023/05/22 03:56:06;;;;;;;;;;;;;;;21.47;95.00;97558.31;5077329;28;20393;-71
2023/05/22 03:58:32;;;;;;;;;;;;;;;21.39;95.67;97567.38;5077701;28;19925;-72
2023/05/22 04:00:59;;;;;;;;;;;;;;;21.41;95.47;97565.13;5073085;28;19967;-72
2023/05/22 04:03:26;;;;;;;;;;;;;;;21.36;95.88;97565.34;5078080;28;19971;-72
2023/05/22 04:05:53;;;;;;;;;;;;;;;21.36;95.84;97564.53;5077731;28;19932;-71
2023/05/22 04:08:20;;;;;;;;;;;;;;;21.34;95.84;97558.66;5077533;28;19996;-72
2023/05/22 04:10:47;;;;;;;;;;;;;;;21.38;95.59;97559.56;5075941;28;19929;-72
2023/05/22 04:13:14;;;;;;;;;;;;;;;21.39;95.44;97553.78;5073601;28;19925;-72
2023/05/22 04:15:43;;;;;;;;;;;;;;;21.38;95.30;97562.28;5075422;28;19992;-73
2023/05/22 04:18:10;;;;;;;;;;;;;;;21.36;95.55;97559.91;5076673;28;19925;-74
2023/05/22 04:20:37;;;;;;;;;;;;;;;21.31;95.74;97560.16;5077910;28;19959;-74
2023/05/22 04:23:06;;;;;;;;;;;;;;;21.33;95.37;97552.44;5077847;28;19925;-75
2023/05/22 04:25:33;;;;;;;;;;;;;;;21.31;95.53;97560.16;5075216;28;19924;-74
2023/05/22 04:28:01;;;;;;;;;;;;;;;21.35;95.42;97555.59;5081149;28;19921;-74
2023/05/22 04:30:28;;;;;;;;;;;;;;;21.31;95.56;97560.16;5078293;28;19931;-74
2023/05/22 04:32:55;;;;;;;;;;;;;;;21.35;95.23;97561.03;5092167;28;19991;-74
2023/05/22 04:35:21;;;;;;;;;;;;;;;21.30;95.68;97569.41;5073915;28;19925;-74
2023/05/22 04:37:49;;;;;;;;;;;;;;;21.30;95.59;97563.97;5074401;28;19936;-76
2023/05/22 04:40:16;;;;;;;;;;;;;;;21.35;95.25;97560.25;5077432;28;20034;-71
2023/05/22 04:42:43;;;;;;;;;;;;;;;21.35;95.34;97560.25;5076542;28;20358;-71
2023/05/22 04:45:10;;;;;;;;;;;;;;;21.31;95.58;97560.16;5078081;28;19920;-71
2023/05/22 04:47:37;;;;;;;;;;;;;;;21.33;95.42;97568.72;5075850;28;19975;-71
2023/05/22 04:50:03;;;;;;;;;;;;;;;21.31;95.36;97562.84;5076099;28;20408;-71
2023/05/22 04:52:29;;;;;;;;;;;;;;;21.29;95.83;97561.63;5076336;28;19985;-71
2023/05/22 04:54:56;;;;;;;;;;;;;;;21.15;96.60;97561.97;5075932;28;19956;-71
2023/05/22 04:57:26;;;;;;;;;;;;;;;21.02;97.99;97563.84;5072424;28;19924;-71
2023/05/22 04:59:52;;;;;;;;;;;;;;;20.66;100.00;97568.44;5074970;28;19955;-71
2023/05/22 05:02:19;;;;;;;;;;;;;;;20.84;100.00;97567.09;5069910;28;19925;-72
2023/05/22 05:04:45;;;;;;;;;;;;;;;20.85;100.00;97568.69;5083360;28;19928;-72
2023/05/22 05:07:12;;;;;;;;;;;;;;;20.74;100.00;97570.25;5070793;28;19925;-72
2023/05/22 05:09:38;;;;;;;;;;;;;;;20.67;100.00;97568.13;5075806;28;19920;-72
2023/05/22 05:12:05;;;;;;;;;;;;;;;20.70;100.00;97569.34;5079060;28;19989;-71
2023/05/22 05:14:32;;;;;;;;;;;;;;;20.66;100.00;97565.72;5077315;28;19988;-72
2023/05/22 05:16:59;;;;;;;;;;;;;;;20.65;100.00;97564.94;5076508;28;19995;-72
2023/05/22 05:19:25;;;;;;;;;;;;;;;20.72;100.00;97570.59;5077096;28;19940;-72
2023/05/22 05:21:51;;;;;;;;;;;;;;;20.48;100.00;97569.75;5069501;28;19947;-71
2023/05/22 05:24:18;;;;;;;;;;;;;;;20.30;100.00;97567.19;5084093;28;19924;-72
2023/05/22 05:26:44;;;;;;;;;;;;;;;20.20;100.00;97575.75;5074312;28;19935;-72
2023/05/22 05:29:11;;;;;;;;;;;;;;;20.31;100.00;97560.66;5074501;28;19924;-71
2023/05/22 05:31:39;;;;;;;;;;;;;;;20.49;100.00;97561.28;5072769;28;19967;-71
2023/05/22 05:34:05;;;;;;;;;;;;;;;20.56;100.00;97564.22;5075622;28;19924;-71
2023/05/22 05:36:32;;;;;;;;;;;;;;;20.78;100.00;97563.03;5075491;28;19963;-71
2023/05/22 05:38:58;;;;;;;;;;;;;;;21.11;99.73;97558.31;5075469;28;19924;-71
2023/05/22 05:41:25;;;;;;;;;;;;;;;21.42;97.53;97565.88;5076541;28;19924;-71
2023/05/22 05:43:51;;;;;;;;;;;;;;;21.71;97.37;97564.84;5075596;28;20315;-72
2023/05/22 05:46:18;;;;;;;;;;;;;;;21.73;96.40;97565.25;5075451;28;19924;-73
2023/05/22 05:48:46;;;;;;;;;;;;;;;21.86;95.72;97564.09;5073324;28;19929;-72
2023/05/22 05:51:12;;;;;;;;;;;;;;;21.97;94.75;97559.81;5072082;28;19925;-72
2023/05/22 05:53:39;;;;;;;;;;;;;;;22.10;93.88;97566.78;5074421;28;19984;-72
2023/05/22 05:56:06;;;;;;;;;;;;;;;22.24;94.50;97567.19;5076613;28;19932;-71
2023/05/22 05:58:32;;;;;;;;;;;;;;;22.23;93.87;97562.06;5076680;28;19929;-73
2023/05/22 06:00:59;;;;;;;;;;;;;;;22.38;93.34;97570.28;5073432;28;20391;-72
2023/05/22 06:03:26;;;;;;;;;;;;;;;22.50;93.15;97561.25;5077231;28;19924;-72
2023/05/22 06:05:53;;;;;;;;;;;;;;;22.64;92.66;97561.66;5076884;28;19925;-72
2023/05/22 06:08:20;;;;;;;;;;;;;;;22.79;92.12;97569.06;5075972;28;19951;-71
2023/05/22 06:10:47;;;;;;;;;;;;;;;22.93;91.65;97574.09;5074114;28;20316;-72
2023/05/22 06:13:13;;;;;;;;;;;;;;;23.03;91.10;97578.97;5077677;28;19928;-73
2023/05/22 06:15:40;;;;;;;;;;;;;;;22.75;88.52;97572.81;5073822;28;19959;-73
2023/05/22 06:18:06;;;;;;;;;;;;;;;22.81;92.28;97571.44;5075975;28;19936;-71
2023/05/22 06:20:32;;;;;;;;;;;;;;;22.95;91.83;97572.59;5080147;28;19924;-72
2023/05/22 06:23:00;;;;;;;;;;;;;;;23.19;90.28;97576.25;5072154;28;19928;-72
2023/05/22 06:25:28;;;;;;;;;;;;;;;23.35;89.24;97571.59;5075947;28;19964;-72
2023/05/22 06:27:55;;;;;;;;;;;;;;;23.44;86.24;97572.22;5075308;28;20035;-72
2023/05/22 06:30:21;;;;;;;;;;;;;;;23.36;81.30;97565.00;5076826;28;19936;-72
2023/05/22 06:32:48;;;;;;;;;;;;;;;23.13;86.81;97570.28;5073824;28;19936;-72
2023/05/22 06:35:14;;;;;;;;;;;;;;;23.27;86.30;97567.91;5071837;28;20325;-72
2023/05/22 06:37:41;;;;;;;;;;;;;;;23.11;85.13;97569.88;5071847;28;19924;-72
2023/05/22 06:40:10;;;;;;;;;;;;;;;23.27;88.55;97564.41;5069987;28;19924;-72
2023/05/22 06:42:36;;;;;;;;;;;;;;;23.42;85.76;97555.44;5078259;28;19935;-72
2023/05/22 06:45:02;;;;;;;;;;;;;;;23.54;83.88;97550.66;5080340;28;20417;-72
2023/05/22 06:47:29;;;;;;;;;;;;;;;23.58;84.41;97556.97;5080868;28;19956;-72
2023/05/22 06:49:56;;;;;;;;;;;;;;;23.33;84.88;97555.59;5079443;28;19967;-72
2023/05/22 06:52:22;;;;;;;;;;;;;;;23.45;81.87;97560.19;5079036;28;19974;-72
2023/05/22 06:54:49;;;;;;;;;;;;;;;23.28;83.10;97557.78;5077948;28;19970;-72
2023/05/22 06:57:16;;;;;;;;;;;;;;;23.15;83.78;97556.34;5073886;28;19951;-72
2023/05/22 06:59:43;;;;;;;;;;;;;;;23.06;87.05;97562.72;5076706;28;19959;-72
2023/05/22 07:02:09;;;;;;;;;;;;;;;22.91;89.29;97565.47;5073873;28;19980;-72
2023/05/22 07:04:35;;;;;;;;;;;;;;;22.87;88.20;97559.16;5079039;28;19929;-72
2023/05/22 07:07:02;;;;;;;;;;;;;;;22.71;90.41;97561.88;5079634;28;19967;-72
2023/05/22 07:09:28;;;;;;;;;;;;;;;22.62;90.74;97563.94;5078978;28;19925;-72
2023/05/22 07:11:55;;;;;;;;;;;;;;;22.67;92.01;97568.34;5077066;28;19960;-72
2023/05/22 07:14:22;;;;;;;;;;;;;;;22.75;91.71;97567.38;5078387;28;19959;-72
2023/05/22 07:16:49;;;;;;;;;;;;;;;22.88;92.74;97564.22;5077644;28;19974;-72
2023/05/22 07:19:15;;;;;;;;;;;;;;;23.12;92.10;97565.97;5076174;28;19925;-72
2023/05/22 07:21:42;;;;;;;;;;;;;;;23.32;89.55;97566.84;5077129;28;19924;-72
2023/05/22 07:24:08;;;;;;;;;;;;;;;23.11;89.62;97561.69;5079307;28;19952;-71
2023/05/22 07:26:35;;;;;;;;;;;;;;;22.94;90.35;97571.00;5079101;28;19956;-71
2023/05/22 07:29:01;;;;;;;;;;;;;;;22.78;89.70;97566.69;5079251;28;19924;-71
2023/05/22 07:31:29;;;;;;;;;;;;;;;22.53;91.92;97572.25;5079029;28;19921;-71
2023/05/22 07:33:56;;;;;;;;;;;;;;;22.39;92.98;97565.63;5076538;28;19955;-72
2023/05/22 07:36:22;;;;;;;;;;;;;;;22.44;91.85;97562.66;5081006;28;19932;-72
2023/05/22 07:38:48;;;;;;;;;;;;;;;22.51;92.27;97563.66;5078271;28;19978;-71
2023/05/22 07:41:15;;;;;;;;;;;;;;;22.75;92.32;97570.09;5074689;28;19924;-72
2023/05/22 07:43:41;;;;;;;;;;;;;;;22.67;91.59;97569.13;5077122;28;19936;-72
2023/05/22 07:46:08;;;;;;;;;;;;;;;22.71;91.50;97555.63;5082160;28;20459;-72
2023/05/22 07:48:36;;;;;;;;;;;;;;;22.81;90.06;97566.00;5077720;28;19931;-71
2023/05/22 07:51:02;;;;;;;;;;;;;;;22.80;89.21;97564.41;5078389;28;19924;-72
2023/05/22 07:53:29;;;;;;;;;;;;;;;22.56;91.06;97568.81;5078789;28;19921;-72
2023/05/22 07:55:55;;;;;;;;;;;;;;;22.62;90.95;97561.22;5078544;28;19979;-73
2023/05/22 07:58:22;;;;;;;;;;;;;;;22.52;91.69;97565.22;5078059;28;19960;-72
2023/05/22 08:00:49;;;;;;;;;;;;;;;22.62;91.71;97554.97;5072026;28;19996;-72
2023/05/22 08:03:15;;;;;;;;;;;;;;;22.72;90.68;97562.63;5074316;28;19962;-72
2023/05/22 08:05:43;;;;;;;;;;;;;;;22.86;91.38;97557.56;5075846;28;19932;-72
2023/05/22 08:08:10;;;;;;;;;;;;;;;22.97;91.76;97564.06;5078261;28;20023;-73
2023/05/22 08:10:37;;;;;;;;;;;;;;;23.06;88.66;97559.22;5083085;28;19935;-72
2023/05/22 08:13:05;;;;;;;;;;;;;;;22.89;86.61;97557.66;5074344;28;20432;-73
2023/05/22 08:15:31;;;;;;;;;;;;;;;23.02;85.03;97555.63;5077168;28;19925;-72
2023/05/22 08:17:57;;;;;;;;;;;;;;;23.11;84.60;97554.31;5080210;28;19925;-72
2023/05/22 08:20:24;;;;;;;;;;;;;;;23.04;83.55;97554.13;5093391;28;19971;-72
2023/05/22 08:22:51;;;;;;;;;;;;;;;23.34;86.16;97550.91;5077741;28;19989;-72
2023/05/22 08:25:18;;;;;;;;;;;;;;;23.56;80.80;97558.47;5074299;28;19924;-72
2023/05/22 08:27:44;;;;;;;;;;;;;;;23.24;79.66;97554.97;5074875;28;19984;-72
2023/05/22 08:30:11;;;;;;;;;;;;;;;23.14;80.28;97566.44;5077410;28;19935;-72
2023/05/22 08:32:37;;;;;;;;;;;;;;;23.22;82.35;97559.19;5083287;28;19956;-72
2023/05/22 08:35:05;;;;;;;;;;;;;;;23.02;84.71;97561.09;5078296;28;19960;-72
2023/05/22 08:37:32;;;;;;;;;;;;;;;23.18;85.31;97553.66;5078557;28;19935;-72
2023/05/22 08:40:00;;;;;;;;;;;;;;;23.06;85.68;97565.47;5078259;28;19975;-71
2023/05/22 08:42:26;;;;;;;;;;;;;;;23.21;85.37;97558.41;5075453;28;19971;-72
2023/05/22 08:44:54;;;;;;;;;;;;;;;23.39;84.94;97558.84;5077666;28;19984;-73
2023/05/22 08:47:22;;;;;;;;;;;;;;;23.24;81.16;97552.25;5074180;28;19928;-72
2023/05/22 08:49:50;;;;;;;;;;;;;;;23.50;83.55;97549.78;5074359;28;19960;-72
2023/05/22 08:52:21;;;;;;;;;;;;;;;23.80;84.37;97549.28;5077890;28;19935;-72
2023/05/22 08:54:51;;;;;;;;;;;;;;;23.97;83.53;97551.56;5087923;28;19987;-72
2023/05/22 08:57:20;;;;;;;;;;;;;;;24.11;83.09;97535.50;5072552;28;19925;-72
2023/05/22 08:59:47;;;;;;;;;;;;;;;24.09;84.17;97545.97;5074210;28;19952;-72
2023/05/22 09:02:14;;;;;;;;;;;;;;;23.91;84.61;97547.53;5076094;28;19982;-72
2023/05/22 09:04:41;;;;;;;;;;;;;;;23.92;83.85;97552.63;5076879;28;19929;-72
2023/05/22 09:07:07;;;;;;;;;;;;;;;24.17;84.41;97550.44;5076979;28;19984;-73
2023/05/22 09:09:36;;;;;;;;;;;;;;;24.22;83.91;97541.97;5074107;28;19925;-73
2023/05/22 09:12:02;;;;;;;;;;;;;;;24.12;83.64;97542.53;5072108;28;19960;-72
2023/05/22 09:14:37;;;;;;;;;;;;;;;24.31;81.19;97555.38;5075721;28;19988;-72
2023/05/22 09:17:05;;;;;;;;;;;;;;;24.23;83.13;97531.84;5077990;28;19947;-72
2023/05/22 09:19:31;;;;;;;;;;;;;;;23.98;82.77;97542.25;5080493;28;19924;-73
2023/05/22 09:22:01;;;;;;;;;;;;;;;23.86;83.91;97540.41;5073227;28;19935;-74
2023/05/22 09:24:28;;;;;;;;;;;;;;;24.43;83.28;97542.38;5075340;28;19925;-73
2023/05/22 09:26:54;;;;;;;;;;;;;;;24.29;80.07;97536.66;5076533;28;20719;-72
2023/05/22 09:29:21;;;;;;;;;;;;;;;24.15;82.39;97544.56;5072245;28;19984;-73
2023/05/22 09:31:48;;;;;;;;;;;;;;;24.49;81.09;97540.91;5074736;28;19925;-72
2023/05/22 09:34:16;;;;;;;;;;;;;;;24.42;79.38;97551.69;5072703;28;19984;-73
2023/05/22 09:36:42;;;;;;;;;;;;;;;24.48;74.35;97546.75;5074309;28;19931;-73
2023/05/22 09:39:09;;;;;;;;;;;;;;;24.51;72.39;97546.03;5076892;28;19952;-72
2023/05/22 09:41:37;;;;;;;;;;;;;;;24.68;74.83;97542.81;5081634;28;19954;-73
2023/05/22 09:44:07;;;;;;;;;;;;;;;24.69;72.32;97538.94;5073539;28;19928;-73
2023/05/22 09:46:38;;;;;;;;;;;;;;;24.75;68.55;97542.16;5075813;28;19931;-74
2023/05/22 09:49:06;;;;;;;;;;;;;;;24.52;66.33;97545.66;5076531;28;20024;-71
2023/05/22 09:51:33;;;;;;;;;;;;;;;24.62;64.25;97542.34;5076460;28;19948;-74
2023/05/22 09:54:02;;;;;;;;;;;;;;;24.61;63.73;97542.69;5076224;28;19924;-73
2023/05/22 09:56:30;;;;;;;;;;;;;;;24.76;60.52;97547.22;5069454;28;19971;-73
2023/05/22 09:58:57;;;;;;;;;;;;;;;24.99;62.59;97536.34;5070933;28;19938;-73
2023/05/22 10:01:25;;;;;;;;;;;;;;;25.21;60.32;97546.47;5074010;28;19920;-73
2023/05/22 10:03:54;;;;;;;;;;;;;;;25.13;59.80;97534.63;5075530;28;19925;-74
2023/05/22 10:06:23;;;;;;;;;;;;;;;25.06;59.86;97531.00;5077840;28;19929;-73
2023/05/22 10:08:50;;;;;;;;;;;;;;;24.93;58.33;97532.34;5073042;28;19976;-73
2023/05/22 10:11:17;;;;;;;;;;;;;;;24.93;57.22;97532.34;5074632;28;19971;-73
2023/05/22 10:13:46;;;;;;;;;;;;;;;25.04;59.10;97541.47;5074737;28;19976;-71
2023/05/22 10:16:13;;;;;;;;;;;;;;;25.18;57.74;97533.53;5075219;28;19929;-72
2023/05/22 10:18:40;;;;;;;;;;;;;;;25.17;56.50;97534.69;5073018;28;20007;-73
2023/05/22 10:21:07;;;;;;;;;;;;;;;25.28;58.97;97516.50;5071710;28;19929;-73
2023/05/22 10:23:35;;;;;;;;;;;;;;;25.28;56.24;97518.44;5074630;28;19925;-73
2023/05/22 10:26:01;;;;;;;;;;;;;;;25.27;57.95;97525.84;5083578;28;19982;-73
2023/05/22 10:28:36;;;;;;;;;;;;;;;25.33;59.05;97518.13;5070387;28;19988;-73
2023/05/22 10:31:06;;;;;;;;;;;;;;;25.25;56.02;97512.53;5083728;28;19925;-73
2023/05/22 10:33:38;;;;;;;;;;;;;;;25.23;55.75;97523.06;5073611;28;19935;-73
2023/05/22 10:36:07;;;;;;;;;;;;;;;25.25;55.09;97517.25;5075999;28;19931;-72
2023/05/22 10:38:44;;;;;;;;;;;;;;;25.28;57.65;97511.03;5075361;28;19925;-73
2023/05/22 10:41:11;;;;;;;;;;;;;;;25.37;57.76;97508.03;5074787;28;19954;-73
2023/05/22 10:43:38;;;;;;;;;;;;;;;25.52;57.96;97505.16;5085291;28;19956;-74
2023/05/22 10:46:05;;;;;;;;;;;;;;;25.50;54.54;97507.47;5069868;28;19943;-72
2023/05/22 10:48:37;;;;;;;;;;;;;;;25.49;54.50;97503.16;5073532;28;19925;-74
2023/05/22 10:51:03;;;;;;;;;;;;;;;25.54;54.92;97491.09;5082866;28;20397;-73
2023/05/22 10:53:31;;;;;;;;;;;;;;;25.64;54.87;97496.72;5069260;28;19948;-75
2023/05/22 10:56:01;;;;;;;;;;;;;;;25.69;54.52;97501.88;5074787;28;19925;-73
2023/05/22 10:58:29;;;;;;;;;;;;;;;25.66;55.43;97497.13;5072545;28;19925;-73
2023/05/22 11:01:08;;;;;;;;;;;;;;;25.65;51.81;97495.56;5071140;28;19927;-73
2023/05/22 11:03:49;;;;;;;;;;;;;;;25.74;49.69;97498.81;5073579;28;19950;-73
2023/05/22 11:06:29;;;;;;;;;;;;;;;25.80;49.01;97490.28;5074159;28;19924;-72
2023/05/22 11:08:57;;;;;;;;;;;;;;;25.77;48.97;97495.34;5073337;28;20024;-76
2023/05/22 11:11:26;;;;;;;;;;;;;;;25.81;46.62;97489.88;5071837;28;19935;-75
2023/05/22 11:13:52;;;;;;;;;;;;;;;25.98;46.86;97485.78;5079254;28;19925;-74
2023/05/22 11:16:19;;;;;;;;;;;;;;;26.09;46.89;97486.72;5074532;28;19925;-73
2023/05/22 11:18:46;;;;;;;;;;;;;;;26.04;48.60;97492.50;5072145;28;19924;-73
2023/05/22 11:21:12;;;;;;;;;;;;;;;26.12;46.17;97494.19;5069704;28;19996;-73
2023/05/22 11:23:39;;;;;;;;;;;;;;;25.98;47.02;97485.78;5072316;28;19924;-73
2023/05/22 11:26:23;;;;;;;;;;;;;;;26.01;46.81;97482.31;5074251;28;19947;-72
2023/05/22 11:28:52;;;;;;;;;;;;;;;26.06;46.97;97484.69;5079404;28;19950;-72
2023/05/22 11:31:19;;;;;;;;;;;;;;;26.10;47.12;97480.06;5072873;28;19924;-72
2023/05/22 11:33:46;;;;;;;;;;;;;;;26.10;47.87;97488.28;5076305;28;19928;-72
2023/05/22 11:36:13;;;;;;;;;;;;;;;26.14;47.67;97484.44;5080056;28;19924;-72
2023/05/22 11:38:40;;;;;;;;;;;;;;;25.94;47.94;97483.00;5083676;28;19925;-73
2023/05/22 11:41:08;;;;;;;;;;;;;;;26.07;47.88;97475.34;5078335;28;19932;-73
2023/05/22 11:43:35;;;;;;;;;;;;;;;26.20;45.57;97474.75;5074829;28;19949;-73
2023/05/22 11:46:06;;;;;;;;;;;;;;;26.26;46.51;97470.50;5078689;28;19975;-73
2023/05/22 11:48:32;;;;;;;;;;;;;;;26.22;47.18;97472.41;5076971;28;19925;-73
2023/05/22 11:50:59;;;;;;;;;;;;;;;26.27;46.91;97463.84;5081868;28;19924;-74
2023/05/22 11:53:25;;;;;;;;;;;;;;;26.29;48.10;97466.22;5074354;28;19951;-77
2023/05/22 11:55:52;;;;;;;;;;;;;;;26.36;49.30;97462.78;5075800;28;19922;-77
2023/05/22 11:58:21;;;;;;;;;;;;;;;26.29;49.61;97456.06;5078011;28;19932;-74
2023/05/22 12:00:47;;;;;;;;;;;;;;;26.42;51.98;97448.38;5076419;28;19928;-74
2023/05/22 12:03:16;;;;;;;;;;;;;;;26.49;49.19;97451.16;5077327;28;19935;-74
2023/05/22 12:05:44;;;;;;;;;;;;;;;26.43;48.80;97460.88;5074876;28;19936;-74
2023/05/22 12:08:11;;;;;;;;;;;;;;;26.40;49.05;97453.41;5073512;28;19928;-74
2023/05/22 12:10:37;;;;;;;;;;;;;;;26.47;48.61;97464.44;5075555;28;19929;-73
2023/05/22 12:13:03;;;;;;;;;;;;;;;26.39;47.65;97457.34;5077203;28;19925;-73
2023/05/22 12:15:30;;;;;;;;;;;;;;;26.43;47.93;97454.63;5081584;28;20481;-73
2023/05/22 12:17:56;;;;;;;;;;;;;;;26.53;47.61;97460.19;5074243;28;19960;-73
2023/05/22 12:20:28;;;;;;;;;;;;;;;26.60;47.01;97460.25;5077328;28;19924;-73
2023/05/22 12:22:55;;;;;;;;;;;;;;;26.59;47.23;97458.69;5076803;28;20026;-73
2023/05/22 12:25:23;;;;;;;;;;;;;;;26.48;45.91;97446.06;5076259;28;19924;-73
2023/05/22 12:27:50;;;;;;;;;;;;;;;26.62;47.15;97446.16;5076406;28;20496;-73
2023/05/22 12:30:17;;;;;;;;;;;;;;;26.58;47.88;97448.91;5075189;28;19952;-73
2023/05/22 12:32:47;;;;;;;;;;;;;;;26.60;48.04;97445.78;5077894;28;19932;-74
2023/05/22 12:35:14;;;;;;;;;;;;;;;26.60;46.28;97437.56;5074828;28;19932;-73
2023/05/22 12:37:47;;;;;;;;;;;;;;;26.76;46.53;97436.13;5072325;28;20028;-73
2023/05/22 12:40:13;;;;;;;;;;;;;;;26.88;45.99;97435.06;5073069;28;19928;-73
2023/05/22 12:42:40;;;;;;;;;;;;;;;26.78;45.79;97443.97;5076243;28;19936;-73
2023/05/22 12:45:07;;;;;;;;;;;;;;;26.84;45.92;97431.50;5079866;28;19992;-73
2023/05/22 12:47:33;;;;;;;;;;;;;;;26.96;46.94;97438.63;5081984;28;19988;-73